Time;durP1;ratioP1;P1;durP2;ratioP2;P2;SDS_P1;SDS_P2;PMS_P1;PMS_P2;Temp;Humidity;BMP_temperature;BMP_pressure;BME280_temperature;BME280_humidity;BME280_pressure;Samples;Min_cycle;Max_cycle;Signal;HPM_P1;HPM_P2
2021/03/15 00:00:30;;;;;;;2.10;1.15;;;3.00;99.90;;;;;;3845776;28;10002073;-66
2021/03/15 00:02:57;;;;;;;3.50;1.58;;;3.00;99.90;;;;;;2379838;28;10002111;-67
2021/03/15 00:05:23;;;;;;;2.63;1.80;;;3.00;99.90;;;;;;4936179;28;20106;-68
2021/03/15 00:07:50;;;;;;;3.65;2.40;;;2.90;99.90;;;;;;4938073;28;20051;-68
2021/03/15 00:10:17;;;;;;;4.75;2.65;;;2.90;99.90;;;;;;4937306;28;20749;-67
2021/03/15 00:12:43;;;;;;;6.10;2.22;;;2.90;99.90;;;;;;4938662;28;20059;-67
2021/03/15 00:15:16;;;;;;;1.50;1.40;;;2.90;99.90;;;;;;4938331;28;20126;-66
2021/03/15 00:17:43;;;;;;;2.80;1.85;;;2.90;99.90;;;;;;4935085;28;20062;-67
2021/03/15 00:20:12;;;;;;;2.80;1.95;;;2.90;99.90;;;;;;4939288;28;20035;-66
2021/03/15 00:22:40;;;;;;;3.38;2.33;;;2.90;99.90;;;;;;4938274;28;20391;-66
2021/03/15 00:25:08;;;;;;;2.63;1.63;;;2.90;99.90;;;;;;4936444;28;20172;-67
2021/03/15 00:27:35;;;;;;;1.77;1.20;;;2.90;99.90;;;;;;4938575;28;20052;-67
2021/03/15 00:30:04;;;;;;;2.15;1.15;;;2.90;99.90;;;;;;4938704;28;20169;-66
2021/03/15 00:32:30;;;;;;;2.83;1.25;;;2.80;99.90;;;;;;4939729;28;20118;-69
2021/03/15 00:34:57;;;;;;;2.33;1.70;;;2.80;99.90;;;;;;4951229;28;20349;-68
2021/03/15 00:37:23;;;;;;;2.88;0.90;;;2.80;99.90;;;;;;4935082;28;20363;-66
2021/03/15 00:39:50;;;;;;;5.25;1.67;;;2.80;99.90;;;;;;4936230;28;20154;-69
2021/03/15 00:42:16;;;;;;;2.00;1.55;;;2.80;99.90;;;;;;4939735;28;20061;-67
2021/03/15 00:44:43;;;;;;;1.65;1.52;;;2.80;99.90;;;;;;4924013;28;20067;-68
2021/03/15 00:47:09;;;;;;;2.28;1.73;;;2.80;99.90;;;;;;4913941;28;20090;-68
2021/03/15 00:49:36;;;;;;;5.15;3.85;;;2.80;99.90;;;;;;4918260;28;20075;-69
2021/03/15 00:52:03;;;;;;;2.55;2.17;;;2.80;99.90;;;;;;4918595;28;20412;-68
2021/03/15 00:54:29;;;;;;;3.50;2.22;;;2.80;99.90;;;;;;4915612;28;20081;-66
2021/03/15 00:56:57;;;;;;;3.88;2.63;;;2.80;99.90;;;;;;4912371;28;20062;-65
2021/03/15 00:59:25;;;;;;;2.33;1.90;;;2.80;99.90;;;;;;4914464;28;20059;-68
2021/03/15 01:01:52;;;;;;;2.75;2.22;;;2.80;99.90;;;;;;4926998;28;20058;-68
2021/03/15 01:04:18;;;;;;;3.15;1.88;;;2.70;99.90;;;;;;4931651;28;20058;-68
2021/03/15 01:07:06;;;;;;;3.63;2.20;;;2.70;99.90;;;;;;4948696;28;20043;-65
2021/03/15 01:09:38;;;;;;;3.05;1.23;;;2.70;99.90;;;;;;4950086;28;20502;-72
2021/03/15 01:12:11;;;;;;;4.45;1.67;;;2.60;99.90;;;;;;4951381;28;20071;-71
2021/03/15 01:14:38;;;;;;;1.48;1.38;;;2.60;99.90;;;;;;4938963;28;20051;-68
2021/03/15 01:17:12;;;;;;;2.92;1.52;;;2.60;99.90;;;;;;4947039;28;20054;-66
2021/03/15 01:19:42;;;;;;;4.43;2.00;;;2.50;99.90;;;;;;4954654;28;20066;-68
2021/03/15 01:22:11;;;;;;;2.65;1.88;;;2.50;99.90;;;;;;4940598;28;20039;-68
2021/03/15 01:24:37;;;;;;;3.58;1.63;;;2.40;99.90;;;;;;4939789;28;20051;-66
2021/03/15 01:27:04;;;;;;;1.77;1.52;;;2.40;99.90;;;;;;4933048;28;20771;-68
2021/03/15 01:29:31;;;;;;;3.55;2.15;;;2.40;99.90;;;;;;4939822;28;20432;-65
2021/03/15 01:31:58;;;;;;;4.38;2.20;;;2.30;99.90;;;;;;4939710;28;20050;-65
2021/03/15 01:34:24;;;;;;;3.63;2.30;;;2.30;99.90;;;;;;4939409;28;20541;-65
2021/03/15 01:37:03;;;;;;;2.88;1.88;;;2.30;99.90;;;;;;4934989;28;20058;-69
2021/03/15 01:39:31;;;;;;;2.65;2.20;;;2.30;99.90;;;;;;4936503;28;20518;-68
2021/03/15 01:42:02;;;;;;;4.55;2.08;;;2.30;99.90;;;;;;4941846;28;20055;-66
2021/03/15 01:44:28;;;;;;;3.53;2.25;;;2.30;99.90;;;;;;4937871;28;20507;-68
2021/03/15 01:46:55;;;;;;;5.53;2.00;;;2.30;99.90;;;;;;4937985;28;20597;-73
2021/03/15 01:49:22;;;;;;;3.63;2.17;;;2.30;99.90;;;;;;4930019;28;20063;-68
2021/03/15 01:51:49;;;;;;;5.68;3.05;;;2.30;99.90;;;;;;4923512;28;20067;-68
2021/03/15 01:54:18;;;;;;;5.35;2.67;;;2.30;99.90;;;;;;4936449;28;20617;-68
2021/03/15 01:56:45;;;;;;;2.88;2.08;;;2.30;99.90;;;;;;4931042;28;20117;-67
2021/03/15 01:59:15;;;;;;;3.00;2.45;;;2.30;99.90;;;;;;4935902;28;20058;-71
2021/03/15 02:01:48;;;;;;;2.70;1.83;;;2.30;99.90;;;;;;4940025;28;20353;-70
2021/03/15 02:04:16;;;;;;;3.80;1.80;;;2.30;99.90;;;;;;4939843;28;20047;-67
2021/03/15 02:06:44;;;;;;;2.03;1.80;;;2.30;99.90;;;;;;4927017;28;20134;-68
2021/03/15 02:09:12;;;;;;;2.72;2.10;;;2.40;99.90;;;;;;4936193;28;20071;-69
2021/03/15 02:11:59;;;;;;;2.25;2.05;;;2.40;99.90;;;;;;4938582;28;20116;-73
2021/03/15 02:15:06;;;;;;;4.25;2.10;;;2.40;99.90;;;;;;4938208;28;20058;-68
2021/03/15 02:17:43;;;;;;;3.47;2.00;;;2.40;99.90;;;;;;4934328;28;20065;-70
2021/03/15 02:20:34;;;;;;;4.68;2.53;;;2.40;99.90;;;;;;4937471;28;20055;-69
2021/03/15 02:23:06;;;;;;;;;;;2.40;99.90;;;;;;4940855;28;20460;-69
2021/03/15 02:25:54;;;;;;;7.65;2.20;;;2.40;99.90;;;;;;4935375;28;20247;-67
2021/03/15 02:28:44;;;;;;;2.70;1.98;;;2.40;99.90;;;;;;4939382;28;20059;-67
2021/03/15 02:31:24;;;;;;;3.60;2.20;;;2.40;99.90;;;;;;4934823;28;20059;-70
2021/03/15 02:34:20;;;;;;;4.07;2.20;;;2.40;99.90;;;;;;4937694;28;20063;-68
2021/03/15 02:36:50;;;;;;;4.50;2.15;;;2.50;99.90;;;;;;4937652;28;20066;-66
2021/03/15 02:39:25;;;;;;;7.60;2.58;;;2.40;99.90;;;;;;4935620;28;20089;-69
2021/03/15 02:41:55;;;;;;;4.35;3.42;;;2.50;99.90;;;;;;4937975;28;20047;-69
2021/03/15 02:44:23;;;;;;;6.35;3.35;;;2.50;99.90;;;;;;4937583;28;20062;-73
2021/03/15 02:46:51;;;;;;;2.78;2.53;;;2.50;99.90;;;;;;4935118;28;20059;-69
2021/03/15 02:49:18;;;;;;;8.57;4.28;;;2.50;99.90;;;;;;4933720;28;20086;-70
2021/03/15 02:51:48;;;;;;;9.25;3.80;;;2.50;99.90;;;;;;4935708;28;20403;-70
2021/03/15 02:54:16;;;;;;;10.98;3.30;;;2.50;99.90;;;;;;4935959;28;20485;-72
2021/03/15 02:56:46;;;;;;;8.27;2.95;;;2.50;99.90;;;;;;4934909;28;20569;-74
2021/03/15 02:59:17;;;;;;;7.75;2.90;;;2.50;99.90;;;;;;4934370;28;20172;-66
2021/03/15 03:01:46;;;;;;;3.78;3.03;;;2.50;99.90;;;;;;4939671;28;20062;-69
2021/03/15 03:04:14;;;;;;;8.45;3.92;;;2.50;99.90;;;;;;4933555;28;20050;-74
2021/03/15 03:06:43;;;;;;;7.53;3.22;;;2.50;99.90;;;;;;4935401;28;20606;-68
2021/03/15 03:09:13;;;;;;;6.10;3.00;;;2.50;99.90;;;;;;4934114;28;20067;-68
2021/03/15 03:11:40;;;;;;;9.25;3.80;;;2.50;99.90;;;;;;4917120;28;20142;-67
2021/03/15 03:14:10;;;;;;;7.70;3.88;;;2.50;99.90;;;;;;4917682;28;20047;-66
2021/03/15 03:16:39;;;;;;;5.13;3.67;;;2.50;99.90;;;;;;4929789;28;20043;-74
2021/03/15 03:19:11;;;;;;;10.80;3.35;;;2.50;99.90;;;;;;4929530;28;20226;-68
2021/03/15 03:21:40;;;;;;;4.68;3.47;;;2.60;99.90;;;;;;4938314;28;20554;-67
2021/03/15 03:24:08;;;;;;;9.80;4.05;;;2.60;99.90;;;;;;4928394;28;20486;-70
2021/03/15 03:26:37;;;;;;;11.70;3.63;;;2.60;99.90;;;;;;4931392;28;20074;-68
2021/03/15 03:29:05;;;;;;;9.02;3.58;;;2.60;99.90;;;;;;4937685;28;20471;-68
2021/03/15 03:31:32;;;;;;;10.70;3.80;;;2.60;99.90;;;;;;4933023;28;20718;-67
2021/03/15 03:34:00;;;;;;;9.32;4.20;;;2.70;99.90;;;;;;4926670;28;20440;-67
2021/03/15 03:36:27;;;;;;;5.43;3.58;;;2.70;99.90;;;;;;4939045;28;20142;-69
2021/03/15 03:38:55;;;;;;;6.63;3.97;;;2.60;99.90;;;;;;4936086;28;20050;-71
2021/03/15 03:41:22;;;;;;;7.32;3.60;;;2.70;99.90;;;;;;4936581;28;20058;-70
2021/03/15 03:44:07;;;;;;;5.68;3.30;;;2.70;99.90;;;;;;4935511;28;20074;-71
2021/03/15 03:46:34;;;;;;;;;;;2.70;99.90;;;;;;4939476;28;20122;-67
2021/03/15 03:49:02;;;;;;;6.75;3.65;;;2.70;99.90;;;;;;4939605;28;20330;-70
2021/03/15 03:51:36;;;;;;;7.47;3.90;;;2.70;99.90;;;;;;4914964;28;20448;-70
2021/03/15 03:54:14;;;;;;;15.52;5.57;;;2.70;99.90;;;;;;4925404;28;20118;-67
2021/03/15 03:57:05;;;;;;;7.22;3.72;;;2.70;99.90;;;;;;4937231;28;20054;-70
2021/03/15 03:59:37;;;;;;;5.72;4.30;;;2.70;99.90;;;;;;4937112;28;20099;-69
2021/03/15 04:02:06;;;;;;;9.07;4.80;;;2.70;99.90;;;;;;4938977;28;20055;-67
2021/03/15 04:04:39;;;;;;;11.93;3.57;;;2.70;99.90;;;;;;4938435;28;20070;-70
2021/03/15 04:07:07;;;;;;;9.70;4.65;;;2.70;99.90;;;;;;4936572;28;20708;-74
2021/03/15 04:09:36;;;;;;;10.35;4.45;;;2.70;99.90;;;;;;4940670;28;20058;-68
2021/03/15 04:12:12;;;;;;;11.23;4.32;;;2.70;99.90;;;;;;4935815;28;20047;-72
2021/03/15 04:14:46;;;;;;;9.38;4.80;;;2.60;99.90;;;;;;4939368;28;20047;-66
2021/03/15 04:17:34;;;;;;;8.98;4.63;;;2.70;99.90;;;;;;4937977;28;20051;-68
2021/03/15 04:20:06;;;;;;;8.10;4.03;;;2.70;99.90;;;;;;4939035;28;20059;-68
2021/03/15 04:22:36;;;;;;;6.07;4.03;;;2.60;99.90;;;;;;4938936;28;20411;-67
2021/03/15 04:25:04;;;;;;;;;;;2.60;99.90;;;;;;4935949;28;20051;-66
2021/03/15 04:27:32;;;;;;;6.03;4.00;;;2.60;99.90;;;;;;4935451;28;19934;-67
2021/03/15 04:29:59;;;;;;;8.05;4.57;;;2.70;99.90;;;;;;4938418;28;20075;-65
2021/03/15 04:32:27;;;;;;;7.18;3.80;;;2.60;99.90;;;;;;4936465;28;20051;-66
2021/03/15 04:34:54;;;;;;;6.80;4.60;;;2.70;99.90;;;;;;4924951;28;20194;-70
2021/03/15 04:37:22;;;;;;;9.40;4.88;;;2.70;99.90;;;;;;4933952;28;20393;-69
2021/03/15 04:39:49;;;;;;;11.77;4.30;;;2.60;99.90;;;;;;4937925;28;20062;-68
2021/03/15 04:42:16;;;;;;;10.60;4.63;;;2.70;99.90;;;;;;4939503;28;20216;-66
2021/03/15 04:44:43;;;;;;;8.95;4.45;;;2.60;99.90;;;;;;4937280;28;20499;-66
2021/03/15 04:47:12;;;;;;;10.38;4.50;;;2.60;99.90;;;;;;4937593;28;20530;-65
2021/03/15 04:49:40;;;;;;;10.60;4.10;;;2.60;99.90;;;;;;4937894;28;20134;-69
2021/03/15 04:52:11;;;;;;;10.65;5.85;;;2.60;99.90;;;;;;4937836;28;20053;-72
2021/03/15 04:54:38;;;;;;;7.53;4.38;;;2.60;99.90;;;;;;4941469;28;20367;-67
2021/03/15 04:57:06;;;;;;;7.53;4.03;;;2.60;99.90;;;;;;4941432;28;20443;-72
2021/03/15 04:59:34;;;;;;;11.10;4.93;;;2.60;99.90;;;;;;4943158;28;20055;-68
2021/03/15 05:02:01;;;;;;;6.57;5.28;;;2.60;99.90;;;;;;4941071;28;20043;-70
2021/03/15 05:04:30;;;;;;;12.90;5.63;;;2.60;99.90;;;;;;4938327;28;20055;-70
2021/03/15 05:06:56;;;;;;;8.10;4.72;;;2.60;99.90;;;;;;4941232;28;20052;-68
2021/03/15 05:09:26;;;;;;;7.43;4.50;;;2.60;99.90;;;;;;4939319;28;20039;-66
2021/03/15 05:11:54;;;;;;;9.43;5.82;;;2.60;99.90;;;;;;4939516;28;20047;-71
2021/03/15 05:14:22;;;;;;;12.55;5.55;;;2.60;99.90;;;;;;4941572;28;20058;-71
2021/03/15 05:16:48;;;;;;;7.38;5.22;;;2.60;99.90;;;;;;4943595;28;20051;-66
2021/03/15 05:19:16;;;;;;;6.25;4.13;;;2.60;99.90;;;;;;4938372;28;20170;-71
2021/03/15 05:21:44;;;;;;;6.13;4.63;;;2.60;99.90;;;;;;4941835;28;20206;-71
2021/03/15 05:24:12;;;;;;;5.72;4.32;;;2.70;99.90;;;;;;4941860;28;20051;-71
2021/03/15 05:26:40;;;;;;;8.68;5.07;;;2.60;99.90;;;;;;4941482;28;20110;-65
2021/03/15 05:29:13;;;;;;;11.43;5.50;;;2.60;99.90;;;;;;4939029;28;20058;-72
2021/03/15 05:31:45;;;;;;;6.07;4.93;;;2.70;99.90;;;;;;4941706;28;20047;-65
2021/03/15 05:34:13;;;;;;;9.75;4.75;;;2.60;99.90;;;;;;4941893;28;20668;-69
2021/03/15 05:36:42;;;;;;;7.35;4.03;;;2.70;99.90;;;;;;4941705;28;20152;-66
2021/03/15 05:39:08;;;;;;;11.63;6.75;;;2.70;99.90;;;;;;4937391;28;20101;-68
2021/03/15 05:41:57;;;;;;;6.95;4.10;;;2.70;99.90;;;;;;4940557;28;20053;-68
2021/03/15 05:45:12;;;;;;;9.57;6.03;;;2.70;99.90;;;;;;4948168;28;20526;-68
2021/03/15 05:48:08;;;;;;;11.75;5.35;;;2.80;99.90;;;;;;4938950;28;20059;-68
2021/03/15 05:50:53;;;;;;;10.05;5.90;;;2.80;99.90;;;;;;4942054;28;20096;-69
2021/03/15 05:53:50;;;;;;;12.93;5.38;;;2.80;99.90;;;;;;4931099;28;20051;-66
2021/03/15 05:56:22;;;;;;;9.32;4.88;;;2.80;99.90;;;;;;4938497;28;20066;-68
2021/03/15 05:59:27;;;;;;;9.02;4.82;;;2.90;99.90;;;;;;4950329;28;20087;-65
2021/03/15 06:02:21;;;;;;;8.90;5.50;;;2.90;99.90;;;;;;4921359;28;20047;-65
2021/03/15 06:05:10;;;;;;;10.35;5.55;;;2.90;99.90;;;;;;4937741;28;20062;-66
2021/03/15 06:07:37;;;;;;;13.30;6.32;;;2.90;99.90;;;;;;4937210;28;20129;-70
2021/03/15 06:10:04;;;;;;;9.27;5.53;;;2.90;99.90;;;;;;4938115;28;20047;-71
2021/03/15 06:12:37;;;;;;;10.20;5.82;;;2.90;99.90;;;;;;4926041;28;20051;-68
2021/03/15 06:15:05;;;;;;;9.13;5.32;;;3.00;99.90;;;;;;4917652;28;20098;-68
2021/03/15 06:17:33;;;;;;;8.65;5.47;;;3.00;99.90;;;;;;4919425;28;20059;-68
2021/03/15 06:20:02;;;;;;;11.18;5.55;;;3.00;99.90;;;;;;4916345;28;20056;-68
2021/03/15 06:22:30;;;;;;;9.73;5.32;;;3.00;99.90;;;;;;4918463;28;20407;-65
2021/03/15 06:24:58;;;;;;;10.65;6.50;;;3.10;99.90;;;;;;4918824;28;20059;-70
2021/03/15 06:27:25;;;;;;;16.10;7.63;;;3.10;99.90;;;;;;4912446;28;20106;-68
2021/03/15 06:29:52;;;;;;;13.02;6.25;;;3.20;99.90;;;;;;4920299;28;20443;-69
2021/03/15 06:32:19;;;;;;;11.18;7.03;;;3.20;99.90;;;;;;4916876;28;20059;-66
2021/03/15 06:34:47;;;;;;;9.63;5.82;;;3.20;99.90;;;;;;4931367;28;21460;-64
2021/03/15 06:37:16;;;;;;;10.57;5.70;;;3.30;99.90;;;;;;4936751;28;20146;-66
2021/03/15 06:39:43;;;;;;;10.65;6.07;;;3.30;99.90;;;;;;4930901;28;20055;-66
2021/03/15 06:42:14;;;;;;;10.82;5.43;;;3.30;99.90;;;;;;4939167;28;20106;-65
2021/03/15 06:44:41;;;;;;;11.13;5.75;;;3.40;99.90;;;;;;4935479;28;20134;-66
2021/03/15 06:47:09;;;;;;;9.30;6.22;;;3.40;99.90;;;;;;4937814;28;20067;-66
2021/03/15 06:49:36;;;;;;;10.82;6.10;;;3.40;99.90;;;;;;4939149;28;20059;-67
2021/03/15 06:52:09;;;;;;;11.23;5.95;;;3.40;99.90;;;;;;4936653;28;20736;-66
2021/03/15 06:54:36;;;;;;;15.48;6.55;;;3.40;99.90;;;;;;4937654;28;20559;-66
2021/03/15 06:57:21;;;;;;;14.13;7.65;;;3.40;99.90;;;;;;4937405;28;20047;-68
2021/03/15 06:59:50;;;;;;;10.00;5.88;;;3.50;99.90;;;;;;4935087;28;20678;-64
2021/03/15 07:02:28;;;;;;;11.98;5.38;;;3.50;99.90;;;;;;4938927;28;20201;-65
2021/03/15 07:05:12;;;;;;;9.98;5.82;;;3.50;99.90;;;;;;4922603;28;20159;-66
2021/03/15 07:07:51;;;;;;;12.10;5.15;;;3.50;99.90;;;;;;4937608;28;20066;-65
2021/03/15 07:10:20;;;;;;;10.38;5.35;;;3.50;99.90;;;;;;4938069;28;20091;-64
2021/03/15 07:12:47;;;;;;;7.60;4.90;;;3.50;99.90;;;;;;4936617;28;20199;-67
2021/03/15 07:15:15;;;;;;;7.63;5.03;;;3.60;99.90;;;;;;4933117;28;20051;-67
2021/03/15 07:17:42;;;;;;;5.90;4.35;;;3.60;99.90;;;;;;4921324;28;20452;-71
2021/03/15 07:20:09;;;;;;;4.57;3.90;;;3.60;99.90;;;;;;4934763;28;20051;-68
2021/03/15 07:22:44;;;;;;;5.97;4.50;;;3.60;99.90;;;;;;4934686;28;20082;-67
2021/03/15 07:25:16;;;;;;;6.38;4.10;;;3.70;99.90;;;;;;4934138;28;20446;-65
2021/03/15 07:27:45;;;;;;;7.43;4.03;;;3.70;99.90;;;;;;4937604;28;20122;-66
2021/03/15 07:30:33;;;;;;;7.28;4.45;;;3.70;99.90;;;;;;4937199;28;20053;-63
2021/03/15 07:33:22;;;;;;;7.65;3.53;;;3.80;99.90;;;;;;4925032;28;20085;-68
2021/03/15 07:35:49;;;;;;;5.80;3.50;;;3.80;99.90;;;;;;4936705;28;20043;-68
2021/03/15 07:38:16;;;;;;;11.73;3.05;;;3.80;99.90;;;;;;4936017;28;20089;-64
2021/03/15 07:40:45;;;;;;;8.73;4.32;;;3.80;99.90;;;;;;4936932;28;20098;-68
2021/03/15 07:43:14;;;;;;;9.65;2.70;;;3.90;99.90;;;;;;4934260;28;20066;-67
2021/03/15 07:45:48;;;;;;;3.92;2.65;;;3.90;99.90;;;;;;4936676;28;20067;-66
2021/03/15 07:48:20;;;;;;;9.70;3.08;;;3.90;99.90;;;;;;4937535;28;20145;-66
2021/03/15 07:51:01;;;;;;;9.07;3.50;;;3.90;99.90;;;;;;4934411;28;20251;-66
2021/03/15 07:53:36;;;;;;;12.68;4.28;;;3.80;99.90;;;;;;4934389;28;20081;-64
2021/03/15 07:56:04;;;;;;;7.57;3.13;;;3.80;99.90;;;;;;4935384;28;20059;-68
2021/03/15 07:58:33;;;;;;;10.20;3.03;;;3.90;99.90;;;;;;4934646;28;20047;-68
2021/03/15 08:01:01;;;;;;;11.75;3.38;;;3.90;99.90;;;;;;4936872;28;20387;-67
2021/03/15 08:03:28;;;;;;;7.18;3.00;;;3.90;99.90;;;;;;4935963;28;20069;-71
2021/03/15 08:05:58;;;;;;;7.75;4.00;;;4.00;99.90;;;;;;4935298;28;20051;-67
2021/03/15 08:08:25;;;;;;;6.53;3.70;;;4.00;99.90;;;;;;4937094;28;20090;-67
2021/03/15 08:10:52;;;;;;;9.63;2.42;;;4.10;99.90;;;;;;4937312;28;20137;-65
2021/03/15 08:13:22;;;;;;;13.10;3.58;;;4.10;99.90;;;;;;4934309;28;20156;-66
2021/03/15 08:15:51;;;;;;;14.63;3.88;;;4.20;99.90;;;;;;4931022;28;20448;-69
2021/03/15 08:18:29;;;;;;;7.00;3.10;;;4.20;99.90;;;;;;4923858;28;20051;-68
2021/03/15 08:21:09;;;;;;;6.97;4.35;;;4.30;99.90;;;;;;4933422;28;20057;-65
2021/03/15 08:23:44;;;;;;;7.68;4.45;;;4.30;99.90;;;;;;4936375;28;20101;-70
2021/03/15 08:26:13;;;;;;;6.57;2.97;;;4.30;99.90;;;;;;4938974;28;20062;-67
2021/03/15 08:28:41;;;;;;;4.20;2.28;;;4.30;99.90;;;;;;4940073;28;20039;-64
2021/03/15 08:31:28;;;;;;;3.28;2.08;;;4.40;99.90;;;;;;4934682;28;20051;-65
2021/03/15 08:33:56;;;;;;;8.18;2.80;;;4.40;99.90;;;;;;4939782;28;20047;-68
2021/03/15 08:36:22;;;;;;;6.57;2.53;;;4.40;99.90;;;;;;4941054;28;20063;-68
2021/03/15 08:38:49;;;;;;;12.60;2.97;;;4.40;99.90;;;;;;4940114;28;20681;-71
2021/03/15 08:41:27;;;;;;;11.25;2.78;;;4.40;99.90;;;;;;4938149;28;20591;-66
2021/03/15 08:43:54;;;;;;;5.68;2.55;;;4.50;99.90;;;;;;4955732;28;20059;-65
2021/03/15 08:46:23;;;;;;;3.40;2.47;;;4.60;99.90;;;;;;4938550;28;20059;-66
2021/03/15 08:48:52;;;;;;;8.45;2.45;;;4.70;99.90;;;;;;4941132;28;20059;-65
2021/03/15 08:51:34;;;;;;;10.30;2.95;;;4.80;99.90;;;;;;4941149;28;20062;-70
2021/03/15 08:54:06;;;;;;;6.05;2.60;;;4.90;99.90;;;;;;4939463;28;20043;-65
2021/03/15 08:56:35;;;;;;;6.28;3.55;;;4.90;99.90;;;;;;4941930;28;20102;-67
2021/03/15 08:59:07;;;;;;;7.47;2.80;;;4.90;99.90;;;;;;4940111;28;20063;-65
2021/03/15 09:01:42;;;;;;;4.28;3.08;;;4.90;99.90;;;;;;4939101;28;20054;-69
2021/03/15 09:04:33;;;;;;;3.85;2.53;;;5.00;99.90;;;;;;4939201;28;20448;-71
2021/03/15 09:07:02;;;;;;;4.03;2.63;;;5.10;99.90;;;;;;4939729;28;20123;-65
2021/03/15 09:09:30;;;;;;;3.53;2.15;;;5.20;99.90;;;;;;4920228;28;20134;-67
2021/03/15 09:11:58;;;;;;;6.15;1.85;;;5.30;99.90;;;;;;4947316;28;20047;-69
2021/03/15 09:14:34;;;;;;;5.70;2.17;;;5.30;99.90;;;;;;4920594;28;20056;-68
2021/03/15 09:17:02;;;;;;;4.63;2.22;;;5.30;99.90;;;;;;4921487;28;20059;-66
2021/03/15 09:19:34;;;;;;;7.15;2.45;;;5.30;99.90;;;;;;4932238;28;20225;-66
2021/03/15 09:22:03;;;;;;;5.85;2.88;;;5.30;99.90;;;;;;4938475;28;20055;-69
2021/03/15 09:24:33;;;;;;;5.75;1.75;;;5.30;99.90;;;;;;4930196;28;20055;-67
2021/03/15 09:27:25;;;;;;;;;;;5.30;99.90;;;;;;4918525;28;20147;-65
2021/03/15 09:30:02;;;;;;;5.28;1.98;;;5.30;99.90;;;;;;4939815;28;19930;-69
2021/03/15 09:32:35;;;;;;;14.35;6.43;;;5.30;99.90;;;;;;4938374;28;20186;-65
2021/03/15 09:35:14;;;;;;;4.85;3.25;;;5.20;99.90;;;;;;4939753;28;20051;-69
2021/03/15 09:38:02;;;;;;;8.63;3.03;;;5.10;99.90;;;;;;4938740;28;20084;-66
2021/03/15 09:40:32;;;;;;;8.93;2.80;;;5.00;99.90;;;;;;4930282;28;20062;-65
2021/03/15 09:43:06;;;;;;;11.40;3.05;;;4.90;99.90;;;;;;4939605;28;20113;-66
2021/03/15 09:45:39;;;;;;;7.78;2.70;;;4.80;99.90;;;;;;4941000;28;20059;-67
2021/03/15 09:48:21;;;;;;;6.07;3.05;;;4.80;99.90;;;;;;4949375;28;20074;-69
2021/03/15 09:50:54;;;;;;;6.03;2.20;;;4.70;99.90;;;;;;4938618;28;21501;-68
2021/03/15 09:53:27;;;;;;;9.55;2.92;;;4.70;99.90;;;;;;4915109;28;20192;-66
2021/03/15 09:56:02;;;;;;;9.05;2.45;;;4.70;99.90;;;;;;4919986;28;20398;-66
2021/03/15 09:58:31;;;;;;;6.90;2.80;;;4.80;99.90;;;;;;4917165;29;20078;-67
2021/03/15 10:01:09;;;;;;;7.70;2.55;;;4.80;99.90;;;;;;4948225;28;20056;-64
2021/03/15 10:03:55;;;;;;;7.22;2.78;;;4.90;99.90;;;;;;4951958;28;20071;-64
2021/03/15 10:06:44;;;;;;;4.93;2.25;;;5.00;99.90;;;;;;4946474;28;20063;-69
2021/03/15 10:09:30;;;;;;;7.22;2.65;;;4.90;99.90;;;;;;4937919;28;20128;-65
2021/03/15 10:12:20;;;;;;;9.93;2.92;;;5.00;99.90;;;;;;4937113;28;20058;-70
2021/03/15 10:15:05;;;;;;;11.00;3.40;;;5.10;99.90;;;;;;4939213;28;20063;-68
2021/03/15 10:17:39;;;;;;;3.50;2.55;;;5.10;99.90;;;;;;4918068;28;20047;-68
2021/03/15 10:20:39;;;;;;;7.15;1.95;;;5.10;99.90;;;;;;4917157;28;20051;-68
2021/03/15 10:23:14;;;;;;;4.57;2.38;;;5.10;99.90;;;;;;4918995;28;20074;-70
2021/03/15 10:25:57;;;;;;;4.63;3.35;;;5.20;99.90;;;;;;4914352;29;20051;-67
2021/03/15 10:28:30;;;;;;;7.32;2.40;;;5.20;99.90;;;;;;4931425;28;20697;-69
2021/03/15 10:31:20;;;;;;;3.28;1.63;;;5.30;99.90;;;;;;4933431;28;20972;-67
2021/03/15 10:33:49;;;;;;;3.30;2.10;;;5.30;99.90;;;;;;4950950;28;20141;-66
2021/03/15 10:36:18;;;;;;;;;;;5.30;99.90;;;;;;4952651;28;20127;-69
2021/03/15 10:38:49;;;;;;;11.52;2.45;;;5.30;99.90;;;;;;4935098;28;20021;-69
2021/03/15 10:41:17;;;;;;;4.30;2.20;;;5.30;99.90;;;;;;4950124;28;20388;-65
2021/03/15 10:43:45;;;;;;;4.75;2.58;;;5.20;99.90;;;;;;4936132;28;20055;-64
2021/03/15 10:46:26;;;;;;;6.82;1.90;;;5.20;99.90;;;;;;4934261;28;20539;-66
2021/03/15 10:48:59;;;;;;;6.32;2.47;;;5.20;99.90;;;;;;4931465;28;20118;-65
2021/03/15 10:51:27;;;;;;;5.65;2.95;;;5.30;99.90;;;;;;4932819;28;20047;-64
2021/03/15 10:54:30;;;;;;;7.65;2.30;;;5.40;99.90;;;;;;4948954;28;20051;-66
2021/03/15 10:57:08;;;;;;;5.55;2.17;;;5.40;99.90;;;;;;4948911;28;20202;-66
2021/03/15 10:59:34;;;;;;;5.50;1.70;;;5.40;99.90;;;;;;4935225;28;20067;-68
2021/03/15 11:02:07;;;;;;;4.03;1.60;;;5.40;99.90;;;;;;4936239;28;20463;-65
2021/03/15 11:04:49;;;;;;;7.00;2.35;;;5.40;99.90;;;;;;4936113;28;20071;-72
2021/03/15 11:07:29;;;;;;;6.13;1.80;;;5.40;99.90;;;;;;4949060;28;20181;-65
2021/03/15 11:10:07;;;;;;;9.50;2.10;;;5.50;99.90;;;;;;4951631;28;20790;-66
2021/03/15 11:12:45;;;;;;;4.88;1.83;;;5.40;99.90;;;;;;4948796;28;20059;-66
2021/03/15 11:15:33;;;;;;;5.82;1.63;;;5.40;99.90;;;;;;4947952;28;21454;-68
2021/03/15 11:18:19;;;;;;;5.80;2.03;;;5.40;99.90;;;;;;4936817;28;20187;-66
2021/03/15 11:20:58;;;;;;;7.47;2.83;;;5.40;99.90;;;;;;4949813;28;20055;-70
2021/03/15 11:23:40;;;;;;;6.30;2.10;;;5.40;99.90;;;;;;4928517;28;20055;-67
2021/03/15 11:26:18;;;;;;;7.38;2.03;;;5.40;99.90;;;;;;4916617;28;20138;-68
2021/03/15 11:28:52;;;;;;;2.65;1.70;;;5.40;99.90;;;;;;4917672;28;20134;-68
2021/03/15 11:31:23;;;;;;;5.93;2.00;;;5.50;99.90;;;;;;4934400;28;20047;-67
2021/03/15 11:33:55;;;;;;;7.93;2.40;;;5.60;99.90;;;;;;4948038;28;20122;-67
2021/03/15 11:36:36;;;;;;;7.03;2.15;;;5.60;99.90;;;;;;4953367;28;20053;-67
2021/03/15 11:39:08;;;;;;;9.80;2.40;;;5.70;99.90;;;;;;4937197;28;20935;-68
2021/03/15 11:41:58;;;;;;;5.80;2.72;;;5.70;99.90;;;;;;4919907;28;20052;-67
2021/03/15 11:44:28;;;;;;;3.38;2.20;;;5.80;99.90;;;;;;4949245;28;20048;-65
2021/03/15 11:46:55;;;;;;;6.20;2.58;;;5.70;99.90;;;;;;4926536;28;20052;-67
2021/03/15 11:49:38;;;;;;;4.25;1.70;;;5.70;99.90;;;;;;4949931;28;20083;-71
2021/03/15 11:52:29;;;;;;;5.28;1.95;;;5.60;99.90;;;;;;4936979;28;20059;-68
2021/03/15 11:55:13;;;;;;;6.00;1.75;;;5.60;99.90;;;;;;4948075;28;20794;-69
2021/03/15 11:57:40;;;;;;;6.82;1.63;;;5.60;99.90;;;;;;4923818;28;20143;-67
2021/03/15 12:00:10;;;;;;;4.70;2.50;;;5.60;99.90;;;;;;4951563;28;20059;-70
2021/03/15 12:02:44;;;;;;;3.33;2.00;;;5.60;99.90;;;;;;4937839;28;20079;-68
2021/03/15 12:05:31;;;;;;;11.32;3.45;;;5.70;99.90;;;;;;4936779;28;20463;-68
2021/03/15 12:08:00;;;;;;;5.50;1.98;;;5.80;99.90;;;;;;4924812;28;20416;-72
2021/03/15 12:10:30;;;;;;;6.07;2.28;;;5.90;99.90;;;;;;4941389;28;20055;-69
2021/03/15 12:12:57;;;;;;;4.95;1.70;;;6.00;99.90;;;;;;4937219;28;20555;-72
2021/03/15 12:15:27;;;;;;;5.53;1.67;;;5.90;99.90;;;;;;4933475;28;20067;-69
2021/03/15 12:18:14;;;;;;;6.68;1.70;;;5.90;99.90;;;;;;4939043;28;20051;-70
2021/03/15 12:20:45;;;;;;;3.60;1.55;;;5.80;99.90;;;;;;4927931;28;20060;-69
2021/03/15 12:23:12;;;;;;;2.15;1.63;;;5.80;99.90;;;;;;4932703;28;20063;-67
2021/03/15 12:25:40;;;;;;;4.88;1.33;;;5.70;99.90;;;;;;4939102;28;20047;-68
2021/03/15 12:28:30;;;;;;;6.25;2.00;;;5.90;99.90;;;;;;4934711;28;20059;-67
2021/03/15 12:31:05;;;;;;;8.75;1.80;;;6.20;99.90;;;;;;4934638;28;20053;-69
2021/03/15 12:33:35;;;;;;;3.03;0.60;;;6.20;99.90;;;;;;4932398;28;20058;-69
2021/03/15 12:36:03;;;;;;;6.30;1.60;;;6.20;99.90;;;;;;4940361;28;20058;-71
2021/03/15 12:38:30;;;;;;;4.30;2.05;;;6.00;99.90;;;;;;4940803;28;20066;-76
2021/03/15 12:40:57;;;;;;;2.63;1.25;;;6.00;99.90;;;;;;4949197;28;20459;-70
2021/03/15 12:43:25;;;;;;;4.53;1.63;;;5.90;99.90;;;;;;4950423;28;20039;-68
2021/03/15 12:46:18;;;;;;;8.20;1.23;;;5.80;99.90;;;;;;4937080;28;20490;-68
2021/03/15 12:49:00;;;;;;;2.55;1.10;;;5.80;99.90;;;;;;4950977;28;20074;-66
2021/03/15 12:51:28;;;;;;;2.30;0.88;;;5.60;99.90;;;;;;4928169;28;20516;-67
2021/03/15 12:53:55;;;;;;;5.57;0.82;;;5.80;99.90;;;;;;4917850;28;20134;-65
2021/03/15 12:56:29;;;;;;;3.13;1.10;;;6.00;99.90;;;;;;4938674;28;20854;-65
2021/03/15 12:58:56;;;;;;;3.63;1.38;;;6.20;99.90;;;;;;4937764;28;20051;-66
2021/03/15 13:01:30;;;;;;;9.00;2.65;;;6.10;99.90;;;;;;4917247;28;20047;-66
2021/03/15 13:03:59;;;;;;;5.15;1.00;;;6.10;99.90;;;;;;4949737;28;20059;-66
2021/03/15 13:06:31;;;;;;;9.27;0.93;;;6.00;99.90;;;;;;4936784;28;20198;-71
2021/03/15 13:09:04;;;;;;;5.20;1.40;;;6.00;99.90;;;;;;4928749;28;20059;-73
2021/03/15 13:11:33;;;;;;;3.63;0.63;;;6.10;99.90;;;;;;4919183;28;20051;-71
2021/03/15 13:14:19;;;;;;;6.15;1.52;;;6.10;99.90;;;;;;4944135;28;20059;-68
2021/03/15 13:16:57;;;;;;;11.77;2.25;;;6.10;99.90;;;;;;4927703;28;20051;-65
2021/03/15 13:19:24;;;;;;;8.32;2.22;;;6.00;99.90;;;;;;4954036;28;20094;-65
2021/03/15 13:21:51;;;;;;;18.80;3.35;;;6.00;99.90;;;;;;4938492;28;20059;-67
2021/03/15 13:24:17;;;;;;;9.07;1.60;;;5.90;99.90;;;;;;4933578;28;20051;-65